sensor_id;sensor_type;location;lat;lon;timestamp;P1;durP1;ratioP1;P2;durP2;ratioP2
18720;SDS011;9489;50.948;3.114;2024-03-02T00:00:48;1.77;;;0.73;;
18720;SDS011;9489;50.948;3.114;2024-03-02T00:03:16;0.95;;;0.80;;
18720;SDS011;9489;50.948;3.114;2024-03-02T00:05:42;1.98;;;0.80;;
18720;SDS011;9489;50.948;3.114;2024-03-02T00:08:07;1.13;;;0.68;;
18720;SDS011;9489;50.948;3.114;2024-03-02T00:10:37;1.10;;;0.63;;
18720;SDS011;9489;50.948;3.114;2024-03-02T00:13:07;1.85;;;1.23;;
18720;SDS011;9489;50.948;3.114;2024-03-02T00:18:12;1.30;;;0.75;;
18720;SDS011;9489;50.948;3.114;2024-03-02T00:20:41;2.50;;;0.90;;
18720;SDS011;9489;50.948;3.114;2024-03-02T00:23:07;2.08;;;0.90;;
18720;SDS011;9489;50.948;3.114;2024-03-02T00:28:16;2.72;;;1.20;;
18720;SDS011;9489;50.948;3.114;2024-03-02T00:30:52;0.95;;;0.80;;
18720;SDS011;9489;50.948;3.114;2024-03-02T00:33:23;1.13;;;0.75;;
18720;SDS011;9489;50.948;3.114;2024-03-02T00:35:51;2.95;;;0.73;;
18720;SDS011;9489;50.948;3.114;2024-03-02T00:38:17;1.38;;;1.00;;
18720;SDS011;9489;50.948;3.114;2024-03-02T00:40:43;1.80;;;0.80;;
18720;SDS011;9489;50.948;3.114;2024-03-02T00:43:19;1.83;;;0.70;;
18720;SDS011;9489;50.948;3.114;2024-03-02T00:46:12;3.45;;;1.05;;
18720;SDS011;9489;50.948;3.114;2024-03-02T00:48:59;1.27;;;0.90;;
18720;SDS011;9489;50.948;3.114;2024-03-02T00:51:26;3.03;;;0.98;;
18720;SDS011;9489;50.948;3.114;2024-03-02T00:53:54;2.33;;;1.02;;
18720;SDS011;9489;50.948;3.114;2024-03-02T00:56:21;1.73;;;0.90;;
18720;SDS011;9489;50.948;3.114;2024-03-02T00:58:48;1.23;;;1.13;;
18720;SDS011;9489;50.948;3.114;2024-03-02T01:01:14;1.13;;;1.00;;
18720;SDS011;9489;50.948;3.114;2024-03-02T01:03:41;2.78;;;1.40;;
18720;SDS011;9489;50.948;3.114;2024-03-02T01:06:07;1.90;;;0.77;;
18720;SDS011;9489;50.948;3.114;2024-03-02T01:08:36;2.30;;;1.00;;
18720;SDS011;9489;50.948;3.114;2024-03-02T01:11:03;2.70;;;1.27;;
18720;SDS011;9489;50.948;3.114;2024-03-02T01:13:29;2.00;;;1.08;;
18720;SDS011;9489;50.948;3.114;2024-03-02T01:15:55;2.72;;;1.00;;
18720;SDS011;9489;50.948;3.114;2024-03-02T01:18:21;1.58;;;0.98;;
18720;SDS011;9489;50.948;3.114;2024-03-02T01:20:50;2.53;;;1.05;;
18720;SDS011;9489;50.948;3.114;2024-03-02T01:23:23;1.50;;;1.15;;
18720;SDS011;9489;50.948;3.114;2024-03-02T01:25:50;1.50;;;1.08;;
18720;SDS011;9489;50.948;3.114;2024-03-02T01:28:16;2.63;;;1.10;;
18720;SDS011;9489;50.948;3.114;2024-03-02T01:30:43;2.28;;;1.40;;
18720;SDS011;9489;50.948;3.114;2024-03-02T01:33:09;3.25;;;1.52;;
18720;SDS011;9489;50.948;3.114;2024-03-02T01:35:34;1.50;;;1.35;;
18720;SDS011;9489;50.948;3.114;2024-03-02T01:38:00;2.72;;;1.40;;
18720;SDS011;9489;50.948;3.114;2024-03-02T01:40:27;4.65;;;1.65;;
18720;SDS011;9489;50.948;3.114;2024-03-02T01:42:53;2.45;;;1.40;;
18720;SDS011;9489;50.948;3.114;2024-03-02T01:45:20;3.53;;;1.42;;
18720;SDS011;9489;50.948;3.114;2024-03-02T01:47:46;3.30;;;1.90;;
18720;SDS011;9489;50.948;3.114;2024-03-02T01:50:12;4.38;;;1.75;;
18720;SDS011;9489;50.948;3.114;2024-03-02T01:52:38;3.97;;;1.70;;
18720;SDS011;9489;50.948;3.114;2024-03-02T01:55:05;1.75;;;1.55;;
18720;SDS011;9489;50.948;3.114;2024-03-02T01:57:31;3.67;;;1.63;;
18720;SDS011;9489;50.948;3.114;2024-03-02T01:59:57;4.25;;;1.90;;
18720;SDS011;9489;50.948;3.114;2024-03-02T02:02:23;3.42;;;2.03;;
18720;SDS011;9489;50.948;3.114;2024-03-02T02:04:49;4.60;;;1.90;;
18720;SDS011;9489;50.948;3.114;2024-03-02T02:07:15;2.85;;;1.95;;
18720;SDS011;9489;50.948;3.114;2024-03-02T02:09:43;5.43;;;1.98;;
18720;SDS011;9489;50.948;3.114;2024-03-02T02:12:09;5.07;;;2.10;;
18720;SDS011;9489;50.948;3.114;2024-03-02T02:14:36;4.00;;;1.88;;
18720;SDS011;9489;50.948;3.114;2024-03-02T02:17:02;3.38;;;1.92;;
18720;SDS011;9489;50.948;3.114;2024-03-02T02:19:28;3.63;;;2.20;;
18720;SDS011;9489;50.948;3.114;2024-03-02T02:21:54;2.17;;;1.92;;
18720;SDS011;9489;50.948;3.114;2024-03-02T02:24:20;3.22;;;1.95;;
18720;SDS011;9489;50.948;3.114;2024-03-02T02:26:45;3.03;;;1.95;;
18720;SDS011;9489;50.948;3.114;2024-03-02T02:29:11;3.60;;;2.08;;
18720;SDS011;9489;50.948;3.114;2024-03-02T02:31:40;3.80;;;2.33;;
18720;SDS011;9489;50.948;3.114;2024-03-02T02:34:06;5.45;;;2.00;;
18720;SDS011;9489;50.948;3.114;2024-03-02T02:36:32;4.22;;;2.00;;
18720;SDS011;9489;50.948;3.114;2024-03-02T02:38:59;4.00;;;1.90;;
18720;SDS011;9489;50.948;3.114;2024-03-02T02:41:32;3.60;;;2.08;;
18720;SDS011;9489;50.948;3.114;2024-03-02T02:43:57;4.40;;;2.28;;
18720;SDS011;9489;50.948;3.114;2024-03-02T02:46:23;3.33;;;2.17;;
18720;SDS011;9489;50.948;3.114;2024-03-02T02:48:48;3.78;;;2.13;;
18720;SDS011;9489;50.948;3.114;2024-03-02T02:51:16;3.53;;;2.33;;
18720;SDS011;9489;50.948;3.114;2024-03-02T02:53:42;3.33;;;2.58;;
18720;SDS011;9489;50.948;3.114;2024-03-02T02:56:08;8.30;;;3.10;;
18720;SDS011;9489;50.948;3.114;2024-03-02T02:58:34;5.22;;;3.22;;
18720;SDS011;9489;50.948;3.114;2024-03-02T03:01:00;6.10;;;3.30;;
18720;SDS011;9489;50.948;3.114;2024-03-02T03:03:26;4.90;;;3.22;;
18720;SDS011;9489;50.948;3.114;2024-03-02T03:05:51;5.78;;;3.85;;
18720;SDS011;9489;50.948;3.114;2024-03-02T03:08:17;6.40;;;3.67;;
18720;SDS011;9489;50.948;3.114;2024-03-02T03:10:43;5.78;;;4.13;;
18720;SDS011;9489;50.948;3.114;2024-03-02T03:13:09;6.13;;;4.13;;
18720;SDS011;9489;50.948;3.114;2024-03-02T03:15:35;6.00;;;3.80;;
18720;SDS011;9489;50.948;3.114;2024-03-02T03:18:04;3.97;;;3.63;;
18720;SDS011;9489;50.948;3.114;2024-03-02T03:20:30;8.23;;;4.38;;
18720;SDS011;9489;50.948;3.114;2024-03-02T03:22:56;8.20;;;4.97;;
18720;SDS011;9489;50.948;3.114;2024-03-02T03:25:22;5.45;;;4.00;;
18720;SDS011;9489;50.948;3.114;2024-03-02T03:27:48;4.88;;;4.20;;
18720;SDS011;9489;50.948;3.114;2024-03-02T03:30:13;6.05;;;4.10;;
18720;SDS011;9489;50.948;3.114;2024-03-02T03:32:39;8.45;;;4.03;;
18720;SDS011;9489;50.948;3.114;2024-03-02T03:35:05;6.18;;;4.75;;
18720;SDS011;9489;50.948;3.114;2024-03-02T03:37:31;6.82;;;4.35;;
18720;SDS011;9489;50.948;3.114;2024-03-02T03:40:01;4.65;;;4.15;;
18720;SDS011;9489;50.948;3.114;2024-03-02T03:42:37;9.65;;;4.72;;
18720;SDS011;9489;50.948;3.114;2024-03-02T03:45:04;6.15;;;4.15;;
18720;SDS011;9489;50.948;3.114;2024-03-02T03:47:33;5.20;;;3.75;;
18720;SDS011;9489;50.948;3.114;2024-03-02T03:49:59;10.13;;;4.40;;
18720;SDS011;9489;50.948;3.114;2024-03-02T03:52:25;4.70;;;3.60;;
18720;SDS011;9489;50.948;3.114;2024-03-02T03:54:50;5.88;;;3.90;;
18720;SDS011;9489;50.948;3.114;2024-03-02T03:57:16;6.72;;;4.32;;
18720;SDS011;9489;50.948;3.114;2024-03-02T03:59:42;5.22;;;3.83;;
18720;SDS011;9489;50.948;3.114;2024-03-02T04:02:09;4.22;;;3.60;;
18720;SDS011;9489;50.948;3.114;2024-03-02T04:04:36;5.20;;;3.83;;
18720;SDS011;9489;50.948;3.114;2024-03-02T04:07:02;7.95;;;3.53;;
18720;SDS011;9489;50.948;3.114;2024-03-02T04:09:28;4.88;;;3.50;;
18720;SDS011;9489;50.948;3.114;2024-03-02T04:11:53;6.28;;;2.90;;
18720;SDS011;9489;50.948;3.114;2024-03-02T04:14:19;4.05;;;3.08;;
18720;SDS011;9489;50.948;3.114;2024-03-02T04:16:44;7.18;;;3.38;;
18720;SDS011;9489;50.948;3.114;2024-03-02T04:19:10;4.88;;;2.97;;
18720;SDS011;9489;50.948;3.114;2024-03-02T04:21:36;5.63;;;2.58;;
18720;SDS011;9489;50.948;3.114;2024-03-02T04:24:02;5.18;;;2.55;;
18720;SDS011;9489;50.948;3.114;2024-03-02T04:26:28;4.88;;;3.08;;
18720;SDS011;9489;50.948;3.114;2024-03-02T04:28:54;5.50;;;3.03;;
18720;SDS011;9489;50.948;3.114;2024-03-02T04:31:19;4.60;;;2.78;;
18720;SDS011;9489;50.948;3.114;2024-03-02T04:33:45;4.25;;;2.60;;
18720;SDS011;9489;50.948;3.114;2024-03-02T04:36:11;4.80;;;2.58;;
18720;SDS011;9489;50.948;3.114;2024-03-02T04:38:37;6.43;;;2.65;;
18720;SDS011;9489;50.948;3.114;2024-03-02T04:41:06;8.75;;;2.95;;
18720;SDS011;9489;50.948;3.114;2024-03-02T04:43:32;4.63;;;2.60;;
18720;SDS011;9489;50.948;3.114;2024-03-02T04:45:58;8.05;;;2.50;;
18720;SDS011;9489;50.948;3.114;2024-03-02T04:48:24;8.88;;;2.60;;
18720;SDS011;9489;50.948;3.114;2024-03-02T04:50:50;5.75;;;2.33;;
18720;SDS011;9489;50.948;3.114;2024-03-02T04:53:16;8.30;;;2.70;;
18720;SDS011;9489;50.948;3.114;2024-03-02T04:55:42;5.22;;;2.20;;
18720;SDS011;9489;50.948;3.114;2024-03-02T04:58:07;5.80;;;2.40;;
18720;SDS011;9489;50.948;3.114;2024-03-02T05:00:33;10.40;;;2.20;;
18720;SDS011;9489;50.948;3.114;2024-03-02T05:03:00;5.80;;;2.50;;
18720;SDS011;9489;50.948;3.114;2024-03-02T05:05:26;5.32;;;2.30;;
18720;SDS011;9489;50.948;3.114;2024-03-02T05:07:51;6.93;;;2.33;;
18720;SDS011;9489;50.948;3.114;2024-03-02T05:10:17;7.13;;;2.33;;
18720;SDS011;9489;50.948;3.114;2024-03-02T05:12:43;5.70;;;2.47;;
18720;SDS011;9489;50.948;3.114;2024-03-02T05:15:09;5.50;;;2.35;;
18720;SDS011;9489;50.948;3.114;2024-03-02T05:17:36;2.63;;;2.17;;
18720;SDS011;9489;50.948;3.114;2024-03-02T05:20:03;9.85;;;3.20;;
18720;SDS011;9489;50.948;3.114;2024-03-02T05:22:29;5.43;;;2.45;;
18720;SDS011;9489;50.948;3.114;2024-03-02T05:24:55;8.23;;;2.63;;
18720;SDS011;9489;50.948;3.114;2024-03-02T05:27:21;8.43;;;2.63;;
18720;SDS011;9489;50.948;3.114;2024-03-02T05:29:47;4.22;;;2.40;;
18720;SDS011;9489;50.948;3.114;2024-03-02T05:32:13;5.32;;;2.30;;
18720;SDS011;9489;50.948;3.114;2024-03-02T05:34:38;3.95;;;2.50;;
18720;SDS011;9489;50.948;3.114;2024-03-02T05:37:04;5.90;;;2.35;;
18720;SDS011;9489;50.948;3.114;2024-03-02T05:39:30;5.55;;;2.10;;
18720;SDS011;9489;50.948;3.114;2024-03-02T05:41:55;4.15;;;2.13;;
18720;SDS011;9489;50.948;3.114;2024-03-02T05:44:21;8.32;;;2.58;;
18720;SDS011;9489;50.948;3.114;2024-03-02T05:46:47;5.70;;;2.28;;
18720;SDS011;9489;50.948;3.114;2024-03-02T05:49:13;7.80;;;3.30;;
18720;SDS011;9489;50.948;3.114;2024-03-02T05:51:38;6.20;;;2.45;;
18720;SDS011;9489;50.948;3.114;2024-03-02T05:54:04;6.45;;;2.20;;
18720;SDS011;9489;50.948;3.114;2024-03-02T05:56:29;6.63;;;2.67;;
18720;SDS011;9489;50.948;3.114;2024-03-02T05:58:55;3.78;;;2.30;;
18720;SDS011;9489;50.948;3.114;2024-03-02T06:01:44;3.15;;;1.75;;
18720;SDS011;9489;50.948;3.114;2024-03-02T06:04:11;4.65;;;2.17;;
18720;SDS011;9489;50.948;3.114;2024-03-02T06:06:37;4.97;;;2.10;;
18720;SDS011;9489;50.948;3.114;2024-03-02T06:09:04;5.70;;;2.13;;
18720;SDS011;9489;50.948;3.114;2024-03-02T06:11:33;6.55;;;2.05;;
18720;SDS011;9489;50.948;3.114;2024-03-02T06:14:02;7.13;;;1.95;;
18720;SDS011;9489;50.948;3.114;2024-03-02T06:16:28;4.47;;;2.15;;
18720;SDS011;9489;50.948;3.114;2024-03-02T06:18:54;6.15;;;1.80;;
18720;SDS011;9489;50.948;3.114;2024-03-02T06:21:23;4.82;;;2.10;;
18720;SDS011;9489;50.948;3.114;2024-03-02T06:23:48;5.25;;;1.80;;
18720;SDS011;9489;50.948;3.114;2024-03-02T06:26:14;3.47;;;1.70;;
18720;SDS011;9489;50.948;3.114;2024-03-02T06:28:40;8.68;;;2.70;;
18720;SDS011;9489;50.948;3.114;2024-03-02T06:31:06;5.93;;;1.90;;
18720;SDS011;9489;50.948;3.114;2024-03-02T06:33:31;6.15;;;2.53;;
18720;SDS011;9489;50.948;3.114;2024-03-02T06:35:57;4.75;;;2.40;;
18720;SDS011;9489;50.948;3.114;2024-03-02T06:38:23;3.50;;;1.83;;
18720;SDS011;9489;50.948;3.114;2024-03-02T06:40:48;5.32;;;1.83;;
18720;SDS011;9489;50.948;3.114;2024-03-02T06:43:14;9.18;;;2.53;;
18720;SDS011;9489;50.948;3.114;2024-03-02T06:45:40;7.30;;;2.10;;
18720;SDS011;9489;50.948;3.114;2024-03-02T06:48:06;5.50;;;2.10;;
18720;SDS011;9489;50.948;3.114;2024-03-02T06:50:33;7.03;;;2.25;;
18720;SDS011;9489;50.948;3.114;2024-03-02T06:52:59;6.43;;;2.08;;
18720;SDS011;9489;50.948;3.114;2024-03-02T06:55:25;6.68;;;2.17;;
18720;SDS011;9489;50.948;3.114;2024-03-02T06:57:51;6.55;;;1.63;;
18720;SDS011;9489;50.948;3.114;2024-03-02T07:00:17;6.25;;;1.90;;
18720;SDS011;9489;50.948;3.114;2024-03-02T07:02:45;4.57;;;2.08;;
18720;SDS011;9489;50.948;3.114;2024-03-02T07:05:11;10.57;;;2.13;;
18720;SDS011;9489;50.948;3.114;2024-03-02T07:07:37;4.43;;;1.60;;
18720;SDS011;9489;50.948;3.114;2024-03-02T07:10:03;4.07;;;1.98;;
18720;SDS011;9489;50.948;3.114;2024-03-02T07:12:30;4.07;;;1.90;;
18720;SDS011;9489;50.948;3.114;2024-03-02T07:14:56;10.07;;;2.45;;
18720;SDS011;9489;50.948;3.114;2024-03-02T07:17:28;7.15;;;2.13;;
18720;SDS011;9489;50.948;3.114;2024-03-02T07:19:54;8.05;;;2.42;;
18720;SDS011;9489;50.948;3.114;2024-03-02T07:22:20;5.32;;;2.70;;
18720;SDS011;9489;50.948;3.114;2024-03-02T07:24:46;7.40;;;2.17;;
18720;SDS011;9489;50.948;3.114;2024-03-02T07:27:12;7.28;;;1.90;;
18720;SDS011;9489;50.948;3.114;2024-03-02T07:29:38;3.67;;;1.70;;
18720;SDS011;9489;50.948;3.114;2024-03-02T07:32:04;7.85;;;1.80;;
18720;SDS011;9489;50.948;3.114;2024-03-02T07:34:33;8.05;;;1.80;;
18720;SDS011;9489;50.948;3.114;2024-03-02T07:36:59;3.40;;;1.40;;
18720;SDS011;9489;50.948;3.114;2024-03-02T07:39:25;6.90;;;1.95;;
18720;SDS011;9489;50.948;3.114;2024-03-02T07:41:51;4.88;;;1.83;;
18720;SDS011;9489;50.948;3.114;2024-03-02T07:44:16;6.18;;;1.77;;
18720;SDS011;9489;50.948;3.114;2024-03-02T07:46:44;7.32;;;2.00;;
18720;SDS011;9489;50.948;3.114;2024-03-02T07:49:17;6.35;;;2.20;;
18720;SDS011;9489;50.948;3.114;2024-03-02T07:51:43;4.88;;;1.35;;
18720;SDS011;9489;50.948;3.114;2024-03-02T07:54:09;3.88;;;1.35;;
18720;SDS011;9489;50.948;3.114;2024-03-02T07:56:34;9.70;;;1.85;;
18720;SDS011;9489;50.948;3.114;2024-03-02T07:59:01;6.05;;;1.70;;
18720;SDS011;9489;50.948;3.114;2024-03-02T08:01:30;8.23;;;1.83;;
18720;SDS011;9489;50.948;3.114;2024-03-02T08:03:57;4.80;;;1.70;;
18720;SDS011;9489;50.948;3.114;2024-03-02T08:06:24;5.15;;;1.60;;
18720;SDS011;9489;50.948;3.114;2024-03-02T08:08:52;7.38;;;1.42;;
18720;SDS011;9489;50.948;3.114;2024-03-02T08:11:25;7.10;;;2.03;;
18720;SDS011;9489;50.948;3.114;2024-03-02T08:13:52;3.28;;;1.60;;
18720;SDS011;9489;50.948;3.114;2024-03-02T08:16:19;7.90;;;3.15;;
18720;SDS011;9489;50.948;3.114;2024-03-02T08:18:49;5.50;;;1.77;;
18720;SDS011;9489;50.948;3.114;2024-03-02T08:21:15;5.03;;;1.52;;
18720;SDS011;9489;50.948;3.114;2024-03-02T08:23:41;7.00;;;1.40;;
18720;SDS011;9489;50.948;3.114;2024-03-02T08:26:08;9.48;;;1.77;;
18720;SDS011;9489;50.948;3.114;2024-03-02T08:28:34;6.32;;;2.17;;
18720;SDS011;9489;50.948;3.114;2024-03-02T08:31:02;5.75;;;2.10;;
18720;SDS011;9489;50.948;3.114;2024-03-02T08:33:28;6.00;;;1.35;;
18720;SDS011;9489;50.948;3.114;2024-03-02T08:35:53;7.68;;;1.83;;
18720;SDS011;9489;50.948;3.114;2024-03-02T08:38:19;5.03;;;1.83;;
18720;SDS011;9489;50.948;3.114;2024-03-02T08:40:45;4.70;;;1.50;;
18720;SDS011;9489;50.948;3.114;2024-03-02T08:43:11;9.48;;;2.00;;
18720;SDS011;9489;50.948;3.114;2024-03-02T08:45:36;9.50;;;2.72;;
18720;SDS011;9489;50.948;3.114;2024-03-02T08:48:04;6.03;;;1.95;;
18720;SDS011;9489;50.948;3.114;2024-03-02T08:50:35;5.72;;;1.83;;
18720;SDS011;9489;50.948;3.114;2024-03-02T08:53:00;8.80;;;2.25;;
18720;SDS011;9489;50.948;3.114;2024-03-02T08:55:27;6.07;;;1.77;;
18720;SDS011;9489;50.948;3.114;2024-03-02T08:57:53;8.85;;;2.17;;
18720;SDS011;9489;50.948;3.114;2024-03-02T09:00:19;7.78;;;1.92;;
18720;SDS011;9489;50.948;3.114;2024-03-02T09:02:45;4.93;;;1.77;;
18720;SDS011;9489;50.948;3.114;2024-03-02T09:05:10;8.52;;;2.08;;
18720;SDS011;9489;50.948;3.114;2024-03-02T09:07:36;7.32;;;2.00;;
18720;SDS011;9489;50.948;3.114;2024-03-02T09:10:04;6.15;;;1.50;;
18720;SDS011;9489;50.948;3.114;2024-03-02T09:12:31;6.25;;;1.90;;
18720;SDS011;9489;50.948;3.114;2024-03-02T09:14:57;11.45;;;2.33;;
18720;SDS011;9489;50.948;3.114;2024-03-02T09:17:23;8.18;;;1.98;;
18720;SDS011;9489;50.948;3.114;2024-03-02T09:19:49;10.65;;;1.80;;
18720;SDS011;9489;50.948;3.114;2024-03-02T09:22:18;6.13;;;2.03;;
18720;SDS011;9489;50.948;3.114;2024-03-02T09:24:44;7.18;;;2.17;;
18720;SDS011;9489;50.948;3.114;2024-03-02T09:27:09;6.40;;;2.10;;
18720;SDS011;9489;50.948;3.114;2024-03-02T09:29:35;11.65;;;2.15;;
18720;SDS011;9489;50.948;3.114;2024-03-02T09:32:01;5.95;;;1.88;;
18720;SDS011;9489;50.948;3.114;2024-03-02T09:34:27;4.55;;;1.58;;
18720;SDS011;9489;50.948;3.114;2024-03-02T09:36:53;8.88;;;1.83;;
18720;SDS011;9489;50.948;3.114;2024-03-02T09:39:18;5.38;;;1.90;;
18720;SDS011;9489;50.948;3.114;2024-03-02T09:41:44;9.75;;;1.98;;
18720;SDS011;9489;50.948;3.114;2024-03-02T09:44:10;6.63;;;2.08;;
18720;SDS011;9489;50.948;3.114;2024-03-02T09:46:35;5.80;;;2.38;;
18720;SDS011;9489;50.948;3.114;2024-03-02T09:49:02;7.18;;;2.40;;
18720;SDS011;9489;50.948;3.114;2024-03-02T09:51:27;8.65;;;1.63;;
18720;SDS011;9489;50.948;3.114;2024-03-02T09:53:54;8.43;;;2.03;;
18720;SDS011;9489;50.948;3.114;2024-03-02T09:56:21;7.22;;;1.75;;
18720;SDS011;9489;50.948;3.114;2024-03-02T09:58:47;10.85;;;2.42;;
18720;SDS011;9489;50.948;3.114;2024-03-02T10:01:12;8.55;;;2.15;;
18720;SDS011;9489;50.948;3.114;2024-03-02T10:03:38;7.43;;;1.90;;
18720;SDS011;9489;50.948;3.114;2024-03-02T10:08:49;8.85;;;1.92;;
18720;SDS011;9489;50.948;3.114;2024-03-02T10:11:31;6.50;;;1.90;;
18720;SDS011;9489;50.948;3.114;2024-03-02T10:14:09;7.28;;;2.30;;
18720;SDS011;9489;50.948;3.114;2024-03-02T10:16:41;5.40;;;1.60;;
18720;SDS011;9489;50.948;3.114;2024-03-02T10:19:17;5.25;;;2.15;;
18720;SDS011;9489;50.948;3.114;2024-03-02T10:21:53;8.25;;;1.83;;
18720;SDS011;9489;50.948;3.114;2024-03-02T10:24:20;6.63;;;1.58;;
18720;SDS011;9489;50.948;3.114;2024-03-02T10:26:47;9.88;;;2.00;;
18720;SDS011;9489;50.948;3.114;2024-03-02T10:29:13;7.63;;;1.83;;
18720;SDS011;9489;50.948;3.114;2024-03-02T10:31:39;7.28;;;1.90;;
18720;SDS011;9489;50.948;3.114;2024-03-02T10:34:09;8.73;;;1.77;;
18720;SDS011;9489;50.948;3.114;2024-03-02T10:36:36;7.45;;;1.88;;
18720;SDS011;9489;50.948;3.114;2024-03-02T10:39:06;11.20;;;1.85;;
18720;SDS011;9489;50.948;3.114;2024-03-02T10:41:33;6.20;;;2.22;;
18720;SDS011;9489;50.948;3.114;2024-03-02T10:44:03;9.43;;;2.58;;
18720;SDS011;9489;50.948;3.114;2024-03-02T10:46:30;6.18;;;1.88;;
18720;SDS011;9489;50.948;3.114;2024-03-02T10:48:58;6.15;;;1.67;;
18720;SDS011;9489;50.948;3.114;2024-03-02T10:51:26;8.00;;;1.75;;
18720;SDS011;9489;50.948;3.114;2024-03-02T10:53:54;6.75;;;1.98;;
18720;SDS011;9489;50.948;3.114;2024-03-02T10:56:38;4.65;;;1.55;;
18720;SDS011;9489;50.948;3.114;2024-03-02T10:59:27;5.30;;;1.95;;
18720;SDS011;9489;50.948;3.114;2024-03-02T11:01:56;7.40;;;1.75;;
18720;SDS011;9489;50.948;3.114;2024-03-02T11:04:24;8.35;;;2.13;;
18720;SDS011;9489;50.948;3.114;2024-03-02T11:07:04;7.45;;;2.13;;
18720;SDS011;9489;50.948;3.114;2024-03-02T11:09:33;5.20;;;2.10;;
18720;SDS011;9489;50.948;3.114;2024-03-02T11:12:02;6.88;;;2.00;;
18720;SDS011;9489;50.948;3.114;2024-03-02T11:14:31;6.78;;;1.65;;
18720;SDS011;9489;50.948;3.114;2024-03-02T11:17:01;5.40;;;1.90;;
18720;SDS011;9489;50.948;3.114;2024-03-02T11:19:29;8.95;;;2.10;;
18720;SDS011;9489;50.948;3.114;2024-03-02T11:21:55;5.57;;;1.63;;
18720;SDS011;9489;50.948;3.114;2024-03-02T11:26:52;9.32;;;1.98;;
18720;SDS011;9489;50.948;3.114;2024-03-02T11:32:04;3.80;;;1.45;;
18720;SDS011;9489;50.948;3.114;2024-03-02T11:34:31;4.65;;;1.67;;
18720;SDS011;9489;50.948;3.114;2024-03-02T11:36:58;6.80;;;1.90;;
18720;SDS011;9489;50.948;3.114;2024-03-02T11:39:26;9.57;;;2.58;;
18720;SDS011;9489;50.948;3.114;2024-03-02T11:41:52;7.25;;;2.03;;
18720;SDS011;9489;50.948;3.114;2024-03-02T11:44:18;7.90;;;3.67;;
18720;SDS011;9489;50.948;3.114;2024-03-02T11:49:49;9.05;;;2.13;;
18720;SDS011;9489;50.948;3.114;2024-03-02T11:52:16;4.55;;;1.55;;
18720;SDS011;9489;50.948;3.114;2024-03-02T11:54:46;7.70;;;2.15;;
18720;SDS011;9489;50.948;3.114;2024-03-02T11:57:16;6.70;;;2.53;;
18720;SDS011;9489;50.948;3.114;2024-03-02T11:59:48;4.43;;;1.75;;
18720;SDS011;9489;50.948;3.114;2024-03-02T12:02:18;6.78;;;1.80;;
18720;SDS011;9489;50.948;3.114;2024-03-02T12:04:45;5.28;;;1.83;;
18720;SDS011;9489;50.948;3.114;2024-03-02T12:07:12;4.13;;;1.42;;
18720;SDS011;9489;50.948;3.114;2024-03-02T12:09:48;4.78;;;1.70;;
18720;SDS011;9489;50.948;3.114;2024-03-02T12:12:14;5.38;;;1.73;;
18720;SDS011;9489;50.948;3.114;2024-03-02T12:14:49;6.07;;;1.90;;
18720;SDS011;9489;50.948;3.114;2024-03-02T12:17:18;5.60;;;1.95;;
18720;SDS011;9489;50.948;3.114;2024-03-02T12:19:44;5.88;;;2.28;;
18720;SDS011;9489;50.948;3.114;2024-03-02T12:22:11;6.22;;;1.98;;
18720;SDS011;9489;50.948;3.114;2024-03-02T12:24:36;6.50;;;1.88;;
18720;SDS011;9489;50.948;3.114;2024-03-02T12:27:03;6.05;;;1.83;;
18720;SDS011;9489;50.948;3.114;2024-03-02T12:29:30;5.18;;;1.98;;
18720;SDS011;9489;50.948;3.114;2024-03-02T12:31:56;7.35;;;1.80;;
18720;SDS011;9489;50.948;3.114;2024-03-02T12:34:22;7.45;;;2.15;;
18720;SDS011;9489;50.948;3.114;2024-03-02T12:36:48;4.22;;;1.55;;
18720;SDS011;9489;50.948;3.114;2024-03-02T12:39:17;5.85;;;1.67;;
18720;SDS011;9489;50.948;3.114;2024-03-02T12:41:43;5.35;;;1.42;;
18720;SDS011;9489;50.948;3.114;2024-03-02T12:44:09;6.53;;;1.83;;
18720;SDS011;9489;50.948;3.114;2024-03-02T12:46:35;4.88;;;1.67;;
18720;SDS011;9489;50.948;3.114;2024-03-02T12:49:10;6.72;;;2.03;;
18720;SDS011;9489;50.948;3.114;2024-03-02T12:51:39;6.85;;;2.20;;
18720;SDS011;9489;50.948;3.114;2024-03-02T12:54:06;6.32;;;2.22;;
18720;SDS011;9489;50.948;3.114;2024-03-02T12:56:36;5.10;;;2.22;;
18720;SDS011;9489;50.948;3.114;2024-03-02T12:59:02;4.05;;;2.08;;
18720;SDS011;9489;50.948;3.114;2024-03-02T13:01:29;9.35;;;2.55;;
18720;SDS011;9489;50.948;3.114;2024-03-02T13:03:55;8.10;;;1.98;;
18720;SDS011;9489;50.948;3.114;2024-03-02T13:06:22;5.43;;;2.30;;
18720;SDS011;9489;50.948;3.114;2024-03-02T13:08:50;3.90;;;2.15;;
18720;SDS011;9489;50.948;3.114;2024-03-02T13:11:16;5.43;;;2.38;;
18720;SDS011;9489;50.948;3.114;2024-03-02T13:13:42;8.10;;;2.22;;
18720;SDS011;9489;50.948;3.114;2024-03-02T13:16:11;4.47;;;2.50;;
18720;SDS011;9489;50.948;3.114;2024-03-02T13:18:40;6.75;;;2.78;;
18720;SDS011;9489;50.948;3.114;2024-03-02T13:21:06;5.97;;;2.60;;
18720;SDS011;9489;50.948;3.114;2024-03-02T13:23:32;5.88;;;3.35;;
18720;SDS011;9489;50.948;3.114;2024-03-02T13:25:58;8.38;;;3.58;;
18720;SDS011;9489;50.948;3.114;2024-03-02T13:28:24;5.32;;;3.58;;
18720;SDS011;9489;50.948;3.114;2024-03-02T13:30:50;7.47;;;2.53;;
18720;SDS011;9489;50.948;3.114;2024-03-02T13:33:16;4.97;;;2.25;;
18720;SDS011;9489;50.948;3.114;2024-03-02T13:35:47;5.50;;;2.22;;
18720;SDS011;9489;50.948;3.114;2024-03-02T13:38:16;3.15;;;1.50;;
18720;SDS011;9489;50.948;3.114;2024-03-02T13:40:43;10.32;;;2.45;;
18720;SDS011;9489;50.948;3.114;2024-03-02T13:43:09;2.28;;;1.52;;
18720;SDS011;9489;50.948;3.114;2024-03-02T13:45:36;2.05;;;1.50;;
18720;SDS011;9489;50.948;3.114;2024-03-02T13:48:02;3.20;;;1.50;;
18720;SDS011;9489;50.948;3.114;2024-03-02T13:50:28;2.38;;;1.50;;
18720;SDS011;9489;50.948;3.114;2024-03-02T13:52:55;5.40;;;2.03;;
18720;SDS011;9489;50.948;3.114;2024-03-02T13:55:21;3.30;;;1.80;;
18720;SDS011;9489;50.948;3.114;2024-03-02T13:57:47;4.05;;;2.15;;
18720;SDS011;9489;50.948;3.114;2024-03-02T14:00:15;4.97;;;2.55;;
18720;SDS011;9489;50.948;3.114;2024-03-02T14:02:42;4.45;;;3.15;;
18720;SDS011;9489;50.948;3.114;2024-03-02T14:05:08;6.18;;;3.25;;
18720;SDS011;9489;50.948;3.114;2024-03-02T14:07:40;6.25;;;3.53;;
18720;SDS011;9489;50.948;3.114;2024-03-02T14:10:06;4.70;;;3.72;;
18720;SDS011;9489;50.948;3.114;2024-03-02T14:12:32;3.85;;;3.45;;
18720;SDS011;9489;50.948;3.114;2024-03-02T14:14:58;6.32;;;3.70;;
18720;SDS011;9489;50.948;3.114;2024-03-02T14:17:24;5.53;;;3.50;;
18720;SDS011;9489;50.948;3.114;2024-03-02T14:19:50;4.00;;;3.22;;
18720;SDS011;9489;50.948;3.114;2024-03-02T14:22:17;5.05;;;3.47;;
18720;SDS011;9489;50.948;3.114;2024-03-02T14:24:43;6.40;;;3.05;;
18720;SDS011;9489;50.948;3.114;2024-03-02T14:27:09;5.63;;;3.35;;
18720;SDS011;9489;50.948;3.114;2024-03-02T14:29:34;5.47;;;3.08;;
18720;SDS011;9489;50.948;3.114;2024-03-02T14:32:02;4.25;;;2.33;;
18720;SDS011;9489;50.948;3.114;2024-03-02T14:34:29;5.20;;;2.83;;
18720;SDS011;9489;50.948;3.114;2024-03-02T14:36:54;2.72;;;2.50;;
18720;SDS011;9489;50.948;3.114;2024-03-02T14:39:20;3.15;;;2.53;;
18720;SDS011;9489;50.948;3.114;2024-03-02T14:41:46;2.67;;;2.25;;
18720;SDS011;9489;50.948;3.114;2024-03-02T14:44:12;4.55;;;2.67;;
18720;SDS011;9489;50.948;3.114;2024-03-02T14:46:37;3.55;;;2.35;;
18720;SDS011;9489;50.948;3.114;2024-03-02T14:49:03;5.85;;;2.78;;
18720;SDS011;9489;50.948;3.114;2024-03-02T14:51:29;4.70;;;2.50;;
18720;SDS011;9489;50.948;3.114;2024-03-02T14:53:55;5.65;;;2.40;;
18720;SDS011;9489;50.948;3.114;2024-03-02T14:56:21;4.15;;;2.60;;
18720;SDS011;9489;50.948;3.114;2024-03-02T14:58:47;3.22;;;2.40;;
18720;SDS011;9489;50.948;3.114;2024-03-02T15:01:13;3.08;;;2.13;;
18720;SDS011;9489;50.948;3.114;2024-03-02T15:03:39;4.20;;;2.38;;
18720;SDS011;9489;50.948;3.114;2024-03-02T15:06:05;3.47;;;1.90;;
18720;SDS011;9489;50.948;3.114;2024-03-02T15:08:32;2.35;;;1.77;;
18720;SDS011;9489;50.948;3.114;2024-03-02T15:10:58;3.15;;;1.58;;
18720;SDS011;9489;50.948;3.114;2024-03-02T15:13:25;4.30;;;1.90;;
18720;SDS011;9489;50.948;3.114;2024-03-02T15:15:52;2.67;;;1.70;;